Decoded Metar for YLRE ( in ) (IATA:) | Meteo·Mobile Aviation Weather
aviador You're here:

YLRE Decoded Metar

in
Report Time2018-09-20 03:00:00
UTC Time2018-09-20 03:25:32
Flight Rules vfr VFR
Wind160° at 15 kt
W.Decomp.*RWY 22: 7.5 kt HW 13 kt LCW
W.Rank160° ranks 15
Current wind is above 160° avg. (8.4)
Visibility9999 m
Phenomena:N/A
Clouds:N/A
Expected CloudBase > 13,600 ft AGL from Temp-Dew spread
CeilingNone
Temp27°C
Dew Point-7°C (10% RH)
Heat Index25.9°C
AAT18.8°C
QNH1018 hPa
Raw Report
METAR YLRE 200300Z AUTO 16015KT 9999 // NCD 27/M07 Q1018=

Extra information for YLRE:More info

Social comments